Terminal Aerodrome Forecast
Issued by NWS

Home | Current Version | Previous Version | Text Only | Print | Product List | Glossary On
Versions: 1 2 3 4 5 6 7 8 9 10 11 12 13 14 15 16 17 18 19 20 21
917
FTUS46 KSEW 131133
TAFHQM
TAF
KHQM 131133Z 1312/1412 21014KT P6SM SCT020 BKN045
     FM131800 16012KT P6SM -RA OVC035
     FM132200 16015G25KT 3SM -RA BR SCT006 OVC011
     FM140400 18012G18KT 3SM -RA BR OVC006=

USA.gov is the U.S. government's official web portal to all federal, state and local government web resources and services.